sensor_id;sensor_type;location;lat;lon;timestamp;temperature;humidity
21590;DHT22;10957;50.968;6.828;2023-02-22T00:01:34;7.40;99.90
21590;DHT22;10957;50.968;6.828;2023-02-22T00:06:35;7.20;99.90
21590;DHT22;10957;50.968;6.828;2023-02-22T00:11:37;7.20;99.90
21590;DHT22;10957;50.968;6.828;2023-02-22T00:16:38;7.10;99.90
21590;DHT22;10957;50.968;6.828;2023-02-22T00:21:39;7.20;99.90
21590;DHT22;10957;50.968;6.828;2023-02-22T00:26:41;7.10;99.90
21590;DHT22;10957;50.968;6.828;2023-02-22T00:31:42;7.20;99.90
21590;DHT22;10957;50.968;6.828;2023-02-22T00:36:48;7.20;99.90
21590;DHT22;10957;50.968;6.828;2023-02-22T00:41:49;7.00;99.90
21590;DHT22;10957;50.968;6.828;2023-02-22T00:46:51;7.20;99.90
21590;DHT22;10957;50.968;6.828;2023-02-22T00:51:52;7.20;99.90
21590;DHT22;10957;50.968;6.828;2023-02-22T00:56:55;7.10;99.90
21590;DHT22;10957;50.968;6.828;2023-02-22T01:01:58;7.50;99.90
21590;DHT22;10957;50.968;6.828;2023-02-22T01:07:00;7.30;99.90
21590;DHT22;10957;50.968;6.828;2023-02-22T01:12:02;7.30;99.90
21590;DHT22;10957;50.968;6.828;2023-02-22T01:17:03;7.30;99.90
21590;DHT22;10957;50.968;6.828;2023-02-22T01:22:05;7.50;99.90
21590;DHT22;10957;50.968;6.828;2023-02-22T01:27:15;7.00;99.90
21590;DHT22;10957;50.968;6.828;2023-02-22T01:32:17;7.00;99.90
21590;DHT22;10957;50.968;6.828;2023-02-22T01:37:18;7.00;99.90
21590;DHT22;10957;50.968;6.828;2023-02-22T01:42:20;7.10;99.90
21590;DHT22;10957;50.968;6.828;2023-02-22T01:47:23;6.90;99.90
21590;DHT22;10957;50.968;6.828;2023-02-22T01:52:24;7.00;99.90
21590;DHT22;10957;50.968;6.828;2023-02-22T01:57:34;7.20;99.90
21590;DHT22;10957;50.968;6.828;2023-02-22T02:02:43;7.20;99.90
21590;DHT22;10957;50.968;6.828;2023-02-22T02:07:45;7.10;99.90
21590;DHT22;10957;50.968;6.828;2023-02-22T02:12:49;7.30;99.90
21590;DHT22;10957;50.968;6.828;2023-02-22T02:17:53;7.00;99.90
21590;DHT22;10957;50.968;6.828;2023-02-22T02:28:41;7.10;99.90
21590;DHT22;10957;50.968;6.828;2023-02-22T02:39:13;7.00;99.90
21590;DHT22;10957;50.968;6.828;2023-02-22T02:44:32;7.10;99.90
21590;DHT22;10957;50.968;6.828;2023-02-22T02:49:43;7.20;99.90
21590;DHT22;10957;50.968;6.828;2023-02-22T02:54:47;7.20;99.90
21590;DHT22;10957;50.968;6.828;2023-02-22T02:59:56;7.40;99.90
21590;DHT22;10957;50.968;6.828;2023-02-22T03:05:17;7.30;99.90
21590;DHT22;10957;50.968;6.828;2023-02-22T03:10:39;7.40;99.90
21590;DHT22;10957;50.968;6.828;2023-02-22T03:16:04;7.20;99.90
21590;DHT22;10957;50.968;6.828;2023-02-22T03:26:42;7.20;99.90
21590;DHT22;10957;50.968;6.828;2023-02-22T03:31:52;7.20;99.90
21590;DHT22;10957;50.968;6.828;2023-02-22T03:37:24;7.40;99.90
21590;DHT22;10957;50.968;6.828;2023-02-22T03:42:32;7.50;99.90
21590;DHT22;10957;50.968;6.828;2023-02-22T03:47:41;7.60;99.90
21590;DHT22;10957;50.968;6.828;2023-02-22T03:52:46;7.40;99.90
21590;DHT22;10957;50.968;6.828;2023-02-22T03:57:57;7.40;99.90
21590;DHT22;10957;50.968;6.828;2023-02-22T04:03:01;7.50;99.90
21590;DHT22;10957;50.968;6.828;2023-02-22T04:08:03;7.40;99.90
21590;DHT22;10957;50.968;6.828;2023-02-22T04:13:07;7.30;99.90
21590;DHT22;10957;50.968;6.828;2023-02-22T04:18:10;7.50;99.90
21590;DHT22;10957;50.968;6.828;2023-02-22T04:23:12;7.60;99.90
21590;DHT22;10957;50.968;6.828;2023-02-22T04:28:15;7.50;99.90
21590;DHT22;10957;50.968;6.828;2023-02-22T04:33:26;7.30;99.90
21590;DHT22;10957;50.968;6.828;2023-02-22T04:38:28;7.40;99.90
21590;DHT22;10957;50.968;6.828;2023-02-22T04:43:31;7.60;99.90
21590;DHT22;10957;50.968;6.828;2023-02-22T04:48:59;7.10;99.90
21590;DHT22;10957;50.968;6.828;2023-02-22T04:54:04;7.40;99.90
21590;DHT22;10957;50.968;6.828;2023-02-22T04:59:16;7.50;99.90
21590;DHT22;10957;50.968;6.828;2023-02-22T05:04:20;7.20;99.90
21590;DHT22;10957;50.968;6.828;2023-02-22T05:09:21;7.10;99.90
21590;DHT22;10957;50.968;6.828;2023-02-22T05:14:23;7.10;99.90
21590;DHT22;10957;50.968;6.828;2023-02-22T05:19:26;6.90;99.90
21590;DHT22;10957;50.968;6.828;2023-02-22T05:24:28;6.90;99.90
21590;DHT22;10957;50.968;6.828;2023-02-22T05:29:29;7.10;99.90
21590;DHT22;10957;50.968;6.828;2023-02-22T05:34:31;7.10;99.90
21590;DHT22;10957;50.968;6.828;2023-02-22T05:39:32;6.90;99.90
21590;DHT22;10957;50.968;6.828;2023-02-22T05:44:34;6.90;99.90
21590;DHT22;10957;50.968;6.828;2023-02-22T05:49:35;6.80;99.90
21590;DHT22;10957;50.968;6.828;2023-02-22T05:54:36;7.00;99.90
21590;DHT22;10957;50.968;6.828;2023-02-22T05:59:38;7.00;99.90
21590;DHT22;10957;50.968;6.828;2023-02-22T06:04:39;6.70;99.90
21590;DHT22;10957;50.968;6.828;2023-02-22T06:09:40;6.50;99.90
21590;DHT22;10957;50.968;6.828;2023-02-22T06:14:42;6.80;99.90
21590;DHT22;10957;50.968;6.828;2023-02-22T06:19:46;6.30;99.90
21590;DHT22;10957;50.968;6.828;2023-02-22T06:24:47;6.60;99.90
21590;DHT22;10957;50.968;6.828;2023-02-22T06:29:48;6.70;99.90
21590;DHT22;10957;50.968;6.828;2023-02-22T06:34:49;6.60;99.90
21590;DHT22;10957;50.968;6.828;2023-02-22T06:39:51;6.60;99.90
21590;DHT22;10957;50.968;6.828;2023-02-22T06:44:52;6.60;99.90
21590;DHT22;10957;50.968;6.828;2023-02-22T06:49:57;6.80;99.90
21590;DHT22;10957;50.968;6.828;2023-02-22T06:54:59;6.60;99.90
21590;DHT22;10957;50.968;6.828;2023-02-22T07:00:00;6.60;99.90
21590;DHT22;10957;50.968;6.828;2023-02-22T07:05:02;6.50;99.90
21590;DHT22;10957;50.968;6.828;2023-02-22T07:10:23;6.50;99.90
21590;DHT22;10957;50.968;6.828;2023-02-22T07:15:27;6.60;99.90
21590;DHT22;10957;50.968;6.828;2023-02-22T07:20:30;6.60;99.90
21590;DHT22;10957;50.968;6.828;2023-02-22T07:25:31;6.70;99.90
21590;DHT22;10957;50.968;6.828;2023-02-22T07:30:33;6.70;99.90
21590;DHT22;10957;50.968;6.828;2023-02-22T07:35:36;6.70;99.90
21590;DHT22;10957;50.968;6.828;2023-02-22T07:40:38;6.70;99.90
21590;DHT22;10957;50.968;6.828;2023-02-22T07:45:41;7.10;99.90
21590;DHT22;10957;50.968;6.828;2023-02-22T07:50:42;7.10;99.90
21590;DHT22;10957;50.968;6.828;2023-02-22T07:55:44;7.30;99.90
21590;DHT22;10957;50.968;6.828;2023-02-22T08:00:45;7.60;99.90
21590;DHT22;10957;50.968;6.828;2023-02-22T08:05:51;7.30;99.90
21590;DHT22;10957;50.968;6.828;2023-02-22T08:10:53;7.40;99.90
21590;DHT22;10957;50.968;6.828;2023-02-22T08:15:54;7.70;99.90
21590;DHT22;10957;50.968;6.828;2023-02-22T08:20:56;7.30;99.90
21590;DHT22;10957;50.968;6.828;2023-02-22T08:26:09;8.00;99.90
21590;DHT22;10957;50.968;6.828;2023-02-22T08:31:10;8.10;99.90
21590;DHT22;10957;50.968;6.828;2023-02-22T08:36:12;7.90;99.90
21590;DHT22;10957;50.968;6.828;2023-02-22T08:41:13;8.10;99.90
21590;DHT22;10957;50.968;6.828;2023-02-22T08:46:16;8.00;99.90
21590;DHT22;10957;50.968;6.828;2023-02-22T08:51:18;8.00;99.90
21590;DHT22;10957;50.968;6.828;2023-02-22T08:56:19;8.40;99.90
21590;DHT22;10957;50.968;6.828;2023-02-22T09:01:21;8.60;99.90
21590;DHT22;10957;50.968;6.828;2023-02-22T09:06:24;8.40;99.90
21590;DHT22;10957;50.968;6.828;2023-02-22T09:11:25;8.40;99.90
21590;DHT22;10957;50.968;6.828;2023-02-22T09:16:26;8.50;99.90
21590;DHT22;10957;50.968;6.828;2023-02-22T09:21:27;8.50;99.90
21590;DHT22;10957;50.968;6.828;2023-02-22T09:26:29;8.90;96.60
21590;DHT22;10957;50.968;6.828;2023-02-22T09:31:30;8.30;32.70
21590;DHT22;10957;50.968;6.828;2023-02-22T09:36:34;8.80;1.00
21590;DHT22;10957;50.968;6.828;2023-02-22T09:46:50;9.50;1.00
21590;DHT22;10957;50.968;6.828;2023-02-22T09:52:18;9.40;1.00
21590;DHT22;10957;50.968;6.828;2023-02-22T09:57:29;9.60;1.00
21590;DHT22;10957;50.968;6.828;2023-02-22T10:02:36;9.30;1.00
21590;DHT22;10957;50.968;6.828;2023-02-22T10:07:46;9.70;1.00
21590;DHT22;10957;50.968;6.828;2023-02-22T10:24:36;10.20;1.00
21590;DHT22;10957;50.968;6.828;2023-02-22T10:34:38;10.80;1.00
21590;DHT22;10957;50.968;6.828;2023-02-22T10:39:41;11.20;99.90
21590;DHT22;10957;50.968;6.828;2023-02-22T10:44:43;10.80;99.90
21590;DHT22;10957;50.968;6.828;2023-02-22T10:49:51;11.10;99.90
21590;DHT22;10957;50.968;6.828;2023-02-22T10:54:55;11.50;99.90
21590;DHT22;10957;50.968;6.828;2023-02-22T11:00:17;11.50;99.90
21590;DHT22;10957;50.968;6.828;2023-02-22T11:05:39;11.50;99.90
21590;DHT22;10957;50.968;6.828;2023-02-22T11:10:41;11.80;99.90
21590;DHT22;10957;50.968;6.828;2023-02-22T11:15:43;11.70;99.90
21590;DHT22;10957;50.968;6.828;2023-02-22T11:20:45;12.20;99.90
21590;DHT22;10957;50.968;6.828;2023-02-22T11:25:47;12.60;99.90
21590;DHT22;10957;50.968;6.828;2023-02-22T11:30:50;12.20;99.90
21590;DHT22;10957;50.968;6.828;2023-02-22T11:35:57;12.50;99.90
21590;DHT22;10957;50.968;6.828;2023-02-22T11:46:12;13.20;99.90
21590;DHT22;10957;50.968;6.828;2023-02-22T11:51:25;12.90;99.90
21590;DHT22;10957;50.968;6.828;2023-02-22T12:01:47;13.20;99.90
21590;DHT22;10957;50.968;6.828;2023-02-22T12:12:27;13.80;99.90
21590;DHT22;10957;50.968;6.828;2023-02-22T12:28:24;13.80;99.90
21590;DHT22;10957;50.968;6.828;2023-02-22T12:33:41;14.20;99.90
21590;DHT22;10957;50.968;6.828;2023-02-22T12:38:47;14.40;99.90
21590;DHT22;10957;50.968;6.828;2023-02-22T12:44:01;14.30;99.90
21590;DHT22;10957;50.968;6.828;2023-02-22T12:49:29;14.10;99.90
21590;DHT22;10957;50.968;6.828;2023-02-22T12:59:46;14.20;97.80
21590;DHT22;10957;50.968;6.828;2023-02-22T13:04:48;14.70;99.90
21590;DHT22;10957;50.968;6.828;2023-02-22T13:20:47;14.40;87.00
21590;DHT22;10957;50.968;6.828;2023-02-22T13:26:21;14.30;75.40
21590;DHT22;10957;50.968;6.828;2023-02-22T13:31:37;14.40;73.10
21590;DHT22;10957;50.968;6.828;2023-02-22T13:37:05;14.30;80.60
21590;DHT22;10957;50.968;6.828;2023-02-22T13:52:50;14.90;64.00
21590;DHT22;10957;50.968;6.828;2023-02-22T13:58:01;14.60;35.50
21590;DHT22;10957;50.968;6.828;2023-02-22T14:13:23;15.10;23.70
21590;DHT22;10957;50.968;6.828;2023-02-22T14:18:49;15.10;23.50
21590;DHT22;10957;50.968;6.828;2023-02-22T14:24:13;15.00;23.30
21590;DHT22;10957;50.968;6.828;2023-02-22T14:29:16;15.10;21.10
21590;DHT22;10957;50.968;6.828;2023-02-22T14:39:47;14.70;11.80
21590;DHT22;10957;50.968;6.828;2023-02-22T14:44:59;15.20;3.90
21590;DHT22;10957;50.968;6.828;2023-02-22T14:50:07;15.20;12.50
21590;DHT22;10957;50.968;6.828;2023-02-22T14:55:16;15.30;1.00
21590;DHT22;10957;50.968;6.828;2023-02-22T15:00:27;15.10;1.00
21590;DHT22;10957;50.968;6.828;2023-02-22T15:05:36;15.20;1.00
21590;DHT22;10957;50.968;6.828;2023-02-22T15:15:46;15.00;1.00
21590;DHT22;10957;50.968;6.828;2023-02-22T15:20:50;15.00;5.10
21590;DHT22;10957;50.968;6.828;2023-02-22T15:25:56;14.90;10.60
21590;DHT22;10957;50.968;6.828;2023-02-22T15:36:27;14.60;1.00
21590;DHT22;10957;50.968;6.828;2023-02-22T15:41:32;14.50;1.00
21590;DHT22;10957;50.968;6.828;2023-02-22T15:46:33;14.30;1.20
21590;DHT22;10957;50.968;6.828;2023-02-22T15:51:37;14.30;3.80
21590;DHT22;10957;50.968;6.828;2023-02-22T15:56:47;14.40;12.10
21590;DHT22;10957;50.968;6.828;2023-02-22T16:01:50;14.40;16.70
21590;DHT22;10957;50.968;6.828;2023-02-22T16:07:02;14.20;36.00
21590;DHT22;10957;50.968;6.828;2023-02-22T16:22:29;13.60;96.90
21590;DHT22;10957;50.968;6.828;2023-02-22T16:27:40;13.10;99.90
21590;DHT22;10957;50.968;6.828;2023-02-22T16:32:48;12.90;99.90
21590;DHT22;10957;50.968;6.828;2023-02-22T16:37:53;12.80;99.90
21590;DHT22;10957;50.968;6.828;2023-02-22T16:42:54;12.60;99.90
21590;DHT22;10957;50.968;6.828;2023-02-22T16:47:58;12.50;99.90
21590;DHT22;10957;50.968;6.828;2023-02-22T16:52:59;12.50;99.90
21590;DHT22;10957;50.968;6.828;2023-02-22T16:58:01;12.30;99.90
21590;DHT22;10957;50.968;6.828;2023-02-22T17:03:03;12.00;99.90
21590;DHT22;10957;50.968;6.828;2023-02-22T17:08:05;11.50;99.90
21590;DHT22;10957;50.968;6.828;2023-02-22T17:13:07;11.80;99.90
21590;DHT22;10957;50.968;6.828;2023-02-22T17:18:13;11.70;99.90
21590;DHT22;10957;50.968;6.828;2023-02-22T17:23:16;11.50;99.90
21590;DHT22;10957;50.968;6.828;2023-02-22T17:28:18;11.50;99.90
21590;DHT22;10957;50.968;6.828;2023-02-22T17:33:21;11.40;99.90
21590;DHT22;10957;50.968;6.828;2023-02-22T17:38:27;11.50;99.90
21590;DHT22;10957;50.968;6.828;2023-02-22T17:43:30;11.20;99.90
21590;DHT22;10957;50.968;6.828;2023-02-22T17:48:31;11.00;99.90
21590;DHT22;10957;50.968;6.828;2023-02-22T17:53:33;10.80;99.90
21590;DHT22;10957;50.968;6.828;2023-02-22T17:58:34;11.00;99.90
21590;DHT22;10957;50.968;6.828;2023-02-22T18:03:36;10.90;99.90
21590;DHT22;10957;50.968;6.828;2023-02-22T18:08:39;11.00;99.90
21590;DHT22;10957;50.968;6.828;2023-02-22T18:13:40;10.90;99.90
21590;DHT22;10957;50.968;6.828;2023-02-22T18:18:42;10.70;99.90
21590;DHT22;10957;50.968;6.828;2023-02-22T18:23:43;10.90;99.90
21590;DHT22;10957;50.968;6.828;2023-02-22T18:28:45;10.90;99.90
21590;DHT22;10957;50.968;6.828;2023-02-22T18:33:50;11.00;99.90
21590;DHT22;10957;50.968;6.828;2023-02-22T18:38:52;10.90;99.90
21590;DHT22;10957;50.968;6.828;2023-02-22T18:43:54;10.70;99.90
21590;DHT22;10957;50.968;6.828;2023-02-22T18:48:57;10.80;1.00
21590;DHT22;10957;50.968;6.828;2023-02-22T18:53:59;10.60;1.00
21590;DHT22;10957;50.968;6.828;2023-02-22T18:59:01;10.70;1.00
21590;DHT22;10957;50.968;6.828;2023-02-22T19:04:04;10.20;1.00
21590;DHT22;10957;50.968;6.828;2023-02-22T19:09:06;10.80;1.00
21590;DHT22;10957;50.968;6.828;2023-02-22T19:14:08;10.70;1.00
21590;DHT22;10957;50.968;6.828;2023-02-22T19:19:09;10.70;1.00
21590;DHT22;10957;50.968;6.828;2023-02-22T19:24:11;10.40;1.00
21590;DHT22;10957;50.968;6.828;2023-02-22T19:29:13;10.00;1.00
21590;DHT22;10957;50.968;6.828;2023-02-22T19:34:14;10.50;1.00
21590;DHT22;10957;50.968;6.828;2023-02-22T19:39:18;10.50;1.00
21590;DHT22;10957;50.968;6.828;2023-02-22T19:44:19;10.20;1.00
21590;DHT22;10957;50.968;6.828;2023-02-22T19:49:22;10.20;1.00
21590;DHT22;10957;50.968;6.828;2023-02-22T19:54:23;10.10;1.00
21590;DHT22;10957;50.968;6.828;2023-02-22T19:59:26;10.10;1.00
21590;DHT22;10957;50.968;6.828;2023-02-22T20:04:28;10.50;1.00
21590;DHT22;10957;50.968;6.828;2023-02-22T20:09:30;10.10;1.00
21590;DHT22;10957;50.968;6.828;2023-02-22T20:14:37;10.10;1.00
21590;DHT22;10957;50.968;6.828;2023-02-22T20:19:38;10.10;1.00
21590;DHT22;10957;50.968;6.828;2023-02-22T20:24:40;10.00;1.00
21590;DHT22;10957;50.968;6.828;2023-02-22T20:29:42;10.20;1.00
21590;DHT22;10957;50.968;6.828;2023-02-22T20:34:45;10.00;1.00
21590;DHT22;10957;50.968;6.828;2023-02-22T20:39:46;10.10;1.00
21590;DHT22;10957;50.968;6.828;2023-02-22T20:44:49;10.20;1.00
21590;DHT22;10957;50.968;6.828;2023-02-22T20:49:50;10.10;1.00
21590;DHT22;10957;50.968;6.828;2023-02-22T20:54:55;10.20;1.00
21590;DHT22;10957;50.968;6.828;2023-02-22T20:59:57;10.30;1.00
21590;DHT22;10957;50.968;6.828;2023-02-22T21:05:00;10.00;1.00
21590;DHT22;10957;50.968;6.828;2023-02-22T21:10:01;10.00;1.00
21590;DHT22;10957;50.968;6.828;2023-02-22T21:15:04;10.10;1.00
21590;DHT22;10957;50.968;6.828;2023-02-22T21:20:07;10.10;26.30
21590;DHT22;10957;50.968;6.828;2023-02-22T21:25:14;9.90;59.40
21590;DHT22;10957;50.968;6.828;2023-02-22T21:30:18;9.90;90.90
21590;DHT22;10957;50.968;6.828;2023-02-22T21:35:24;9.90;99.90
21590;DHT22;10957;50.968;6.828;2023-02-22T21:40:28;10.00;99.90
21590;DHT22;10957;50.968;6.828;2023-02-22T21:45:34;9.90;99.90
21590;DHT22;10957;50.968;6.828;2023-02-22T21:50:37;9.90;99.90
21590;DHT22;10957;50.968;6.828;2023-02-22T21:55:41;9.90;99.90
21590;DHT22;10957;50.968;6.828;2023-02-22T22:00:44;9.80;99.90
21590;DHT22;10957;50.968;6.828;2023-02-22T22:05:46;9.80;99.90
21590;DHT22;10957;50.968;6.828;2023-02-22T22:10:51;10.00;99.90
21590;DHT22;10957;50.968;6.828;2023-02-22T22:15:55;9.80;99.90
21590;DHT22;10957;50.968;6.828;2023-02-22T22:21:13;9.70;99.90
21590;DHT22;10957;50.968;6.828;2023-02-22T22:26:18;9.80;99.90
21590;DHT22;10957;50.968;6.828;2023-02-22T22:31:21;9.70;99.90
21590;DHT22;10957;50.968;6.828;2023-02-22T22:36:24;9.90;99.90
21590;DHT22;10957;50.968;6.828;2023-02-22T22:41:27;10.00;99.90
21590;DHT22;10957;50.968;6.828;2023-02-22T22:46:28;10.00;99.90
21590;DHT22;10957;50.968;6.828;2023-02-22T22:51:29;10.00;99.90
21590;DHT22;10957;50.968;6.828;2023-02-22T22:56:31;9.90;99.90
21590;DHT22;10957;50.968;6.828;2023-02-22T23:01:40;9.50;99.90
21590;DHT22;10957;50.968;6.828;2023-02-22T23:06:49;9.80;99.90
21590;DHT22;10957;50.968;6.828;2023-02-22T23:16:53;9.70;99.90
21590;DHT22;10957;50.968;6.828;2023-02-22T23:22:04;9.60;99.90
21590;DHT22;10957;50.968;6.828;2023-02-22T23:27:07;9.60;99.90
21590;DHT22;10957;50.968;6.828;2023-02-22T23:32:10;9.70;99.90
21590;DHT22;10957;50.968;6.828;2023-02-22T23:37:14;9.60;99.90
21590;DHT22;10957;50.968;6.828;2023-02-22T23:42:16;9.90;99.90
21590;DHT22;10957;50.968;6.828;2023-02-22T23:47:17;9.80;99.90
21590;DHT22;10957;50.968;6.828;2023-02-22T23:52:19;9.70;99.90
21590;DHT22;10957;50.968;6.828;2023-02-22T23:57:23;10.00;99.90
